Time;durP1;ratioP1;P1;durP2;ratioP2;P2;SDS_P1;SDS_P2;PMS_P1;PMS_P2;Temp;Humidity;BMP_temperature;BMP_pressure;BME280_temperature;BME280_humidity;BME280_pressure;Samples;Min_cycle;Max_cycle;Signal;HPM_P1;HPM_P2
2022/09/04 00:00:09;;;;;;;1.77;0.85;;;13.20;99.90;;;;;;5070027;28;20110;-46
2022/09/04 00:03:06;;;;;;;1.98;0.90;;;13.20;99.90;;;;;;5061818;28;20047;-46
2022/09/04 00:05:34;;;;;;;5.22;1.40;;;13.20;99.90;;;;;;5062578;28;20048;-46
2022/09/04 00:08:38;;;;;;;4.22;1.00;;;13.20;99.90;;;;;;5070808;28;20120;-46
2022/09/04 00:11:29;;;;;;;4.15;1.40;;;13.20;99.90;;;;;;5066329;28;20059;-49
2022/09/04 00:14:00;;;;;;;1.83;1.15;;;13.20;99.90;;;;;;5065977;28;20048;-46
2022/09/04 00:16:41;;;;;;;2.88;1.35;;;13.20;99.90;;;;;;5069389;22;20056;-47
2022/09/04 00:19:28;;;;;;;1.45;1.17;;;13.20;99.90;;;;;;5029743;28;20044;-50
2022/09/04 00:22:00;;;;;;;3.67;1.05;;;13.10;99.90;;;;;;5053622;28;20049;-45
2022/09/04 00:24:37;;;;;;;3.17;1.30;;;13.10;99.90;;;;;;5047242;28;20055;-47
2022/09/04 00:27:18;;;;;;;2.92;1.50;;;13.00;99.90;;;;;;5049980;28;20041;-47
2022/09/04 00:29:48;;;;;;;7.60;1.90;;;13.00;99.90;;;;;;5033520;28;20502;-46
2022/09/04 00:32:59;;;;;;;3.58;1.73;;;13.00;99.90;;;;;;5054396;28;20047;-46
2022/09/04 00:35:39;;;;;;;4.40;2.17;;;13.10;99.90;;;;;;4968215;28;20424;-48
2022/09/04 00:38:16;;;;;;;3.17;1.80;;;13.10;99.90;;;;;;4971353;28;20051;-46
2022/09/04 00:41:17;;;;;;;2.85;2.35;;;13.20;99.90;;;;;;5038606;28;20056;-47
2022/09/04 00:44:02;;;;;;;4.45;1.90;;;13.20;99.90;;;;;;5052320;28;20108;-45
2022/09/04 00:47:03;;;;;;;2.83;1.55;;;13.20;99.90;;;;;;5062298;28;20039;-46
2022/09/04 00:49:40;;;;;;;1.00;0.90;;;13.20;99.90;;;;;;5065577;28;20404;-48
2022/09/04 00:52:18;;;;;;;1.98;0.80;;;13.20;99.90;;;;;;5061565;28;20040;-51
2022/09/04 00:55:26;;;;;;;2.08;0.90;;;13.20;99.90;;;;;;5053742;28;20048;-46
2022/09/04 00:58:28;;;;;;;2.00;1.08;;;13.10;99.90;;;;;;5049922;28;20056;-46
2022/09/04 01:00:57;;;;;;;2.38;1.73;;;13.10;99.90;;;;;;5025908;28;20045;-46
2022/09/04 01:04:06;;;;;;;5.75;3.00;;;13.10;99.90;;;;;;5053868;28;20040;-49
2022/09/04 01:06:38;;;;;;;3.95;2.40;;;13.20;99.90;;;;;;5050668;28;20036;-45
2022/09/04 01:09:32;;;;;;;3.88;2.03;;;13.30;99.90;;;;;;5065427;28;20040;-46
2022/09/04 01:12:11;;;;;;;2.60;1.40;;;13.30;99.90;;;;;;5056480;28;20049;-49
2022/09/04 01:14:44;;;;;;;2.92;1.40;;;13.30;99.90;;;;;;5052298;28;20501;-48
2022/09/04 01:17:36;;;;;;;5.75;1.45;;;13.40;99.90;;;;;;5052636;28;20131;-46
2022/09/04 01:20:13;;;;;;;1.15;0.98;;;13.40;99.90;;;;;;5064958;28;20036;-49
2022/09/04 01:23:11;;;;;;;1.73;1.30;;;13.40;99.90;;;;;;5059873;28;20063;-46
2022/09/04 01:25:50;;;;;;;3.85;2.17;;;13.40;99.90;;;;;;5054262;28;20287;-48
2022/09/04 01:28:28;;;;;;;4.00;2.00;;;13.40;99.90;;;;;;5052905;28;20124;-46
2022/09/04 01:31:23;;;;;;;2.60;1.40;;;13.40;99.90;;;;;;5049737;28;20040;-47
2022/09/04 01:34:18;;;;;;;1.80;1.08;;;13.40;99.90;;;;;;5052666;28;20037;-46
2022/09/04 01:36:52;;;;;;;2.25;1.02;;;13.40;99.90;;;;;;5030342;28;20061;-51
2022/09/04 01:39:22;;;;;;;1.20;1.08;;;13.30;99.90;;;;;;5052115;28;20128;-47
2022/09/04 01:42:18;;;;;;;2.55;1.35;;;13.30;99.90;;;;;;5053577;28;20049;-47
2022/09/04 01:44:45;;;;;;;2.40;1.27;;;13.30;99.90;;;;;;5051251;28;20390;-50
2022/09/04 01:47:30;;;;;;;4.60;1.60;;;13.30;99.90;;;;;;5053030;28;20048;-47
2022/09/04 01:50:11;;;;;;;1.65;1.40;;;13.40;99.90;;;;;;5052337;28;20037;-46
2022/09/04 01:52:57;;;;;;;1.95;1.40;;;13.40;99.90;;;;;;5037515;28;20537;-46
2022/09/04 01:55:45;;;;;;;5.28;1.77;;;13.40;99.90;;;;;;5062537;28;20049;-45
2022/09/04 01:58:23;;;;;;;2.83;2.15;;;13.40;99.90;;;;;;5073262;28;20063;-50
2022/09/04 02:01:09;;;;;;;5.63;2.13;;;13.40;99.90;;;;;;5073145;28;20040;-49
2022/09/04 02:03:58;;;;;;;3.90;1.80;;;13.40;99.90;;;;;;5062598;28;20052;-49
2022/09/04 02:06:33;;;;;;;2.55;1.63;;;13.30;99.90;;;;;;5072365;28;20056;-46
2022/09/04 02:09:38;;;;;;;1.92;1.50;;;13.30;99.90;;;;;;5055089;28;20087;-46
2022/09/04 02:12:15;;;;;;;3.03;1.55;;;13.20;99.90;;;;;;5064732;28;20273;-47
2022/09/04 02:15:28;;;;;;;1.85;1.30;;;13.10;99.90;;;;;;5055238;28;20040;-49
2022/09/04 02:18:12;;;;;;;2.78;1.35;;;13.00;99.90;;;;;;5052143;28;20040;-47
2022/09/04 02:20:47;;;;;;;4.18;1.80;;;13.00;99.90;;;;;;5052543;28;20045;-49
2022/09/04 02:23:39;;;;;;;5.38;1.80;;;13.00;99.90;;;;;;5052631;28;20540;-49
2022/09/04 02:26:22;;;;;;;2.03;1.52;;;13.10;99.90;;;;;;5032863;28;20044;-48
2022/09/04 02:29:04;;;;;;;3.17;1.52;;;13.10;99.90;;;;;;5033576;28;20045;-47
2022/09/04 02:31:51;;;;;;;2.85;1.40;;;13.10;99.90;;;;;;5051425;28;20041;-49
2022/09/04 02:34:37;;;;;;;5.25;1.23;;;13.10;99.90;;;;;;5051732;28;20044;-46
2022/09/04 02:37:21;;;;;;;3.60;1.10;;;13.10;99.90;;;;;;5052458;28;20056;-45
2022/09/04 02:40:17;;;;;;;2.60;1.48;;;13.10;99.90;;;;;;5032489;28;20497;-47
2022/09/04 02:43:02;;;;;;;5.00;2.03;;;13.10;99.90;;;;;;5057243;28;20051;-46
2022/09/04 02:45:58;;;;;;;7.45;2.03;;;13.20;99.90;;;;;;5051555;28;20051;-48
2022/09/04 02:48:47;;;;;;;5.60;1.60;;;13.20;99.90;;;;;;5046044;28;20413;-47
2022/09/04 02:51:23;;;;;;;1.40;1.10;;;13.20;99.90;;;;;;5051026;28;20049;-48
2022/09/04 02:54:08;;;;;;;2.13;1.27;;;13.30;99.90;;;;;;5044571;28;20066;-46
2022/09/04 02:57:08;;;;;;;1.80;1.40;;;13.20;99.90;;;;;;5043991;28;20052;-47
2022/09/04 03:00:18;;;;;;;1.55;1.20;;;13.20;99.90;;;;;;5053419;28;20050;-48
2022/09/04 03:03:17;;;;;;;1.48;1.20;;;13.20;99.90;;;;;;5046387;28;20029;-45
2022/09/04 03:05:55;;;;;;;4.07;1.77;;;13.10;99.90;;;;;;5030081;28;20060;-47
2022/09/04 03:08:34;;;;;;;5.68;2.25;;;13.10;99.90;;;;;;5061959;28;20036;-50
2022/09/04 03:11:13;;;;;;;5.68;2.65;;;13.20;99.90;;;;;;5060887;28;20037;-48
2022/09/04 03:14:00;;;;;;;7.10;2.45;;;13.20;99.90;;;;;;5051345;28;20045;-47
2022/09/04 03:16:41;;;;;;;3.17;2.75;;;13.20;99.90;;;;;;5031568;28;20055;-45
2022/09/04 03:19:33;;;;;;;4.25;1.80;;;13.20;99.90;;;;;;5060111;28;20053;-46
2022/09/04 03:22:18;;;;;;;5.43;1.77;;;13.30;99.90;;;;;;5071116;28;20081;-46
2022/09/04 03:25:05;;;;;;;4.18;2.97;;;13.30;99.90;;;;;;5059127;28;20044;-49
2022/09/04 03:27:33;;;;;;;2.22;1.80;;;13.30;99.90;;;;;;5047198;28;20047;-46
2022/09/04 03:30:07;;;;;;;4.82;2.22;;;13.20;99.90;;;;;;5070908;28;20060;-45
2022/09/04 03:32:43;;;;;;;3.15;2.17;;;13.30;99.90;;;;;;5070115;28;20045;-45
2022/09/04 03:35:29;;;;;;;2.50;1.63;;;13.30;99.90;;;;;;5050076;28;20053;-47
2022/09/04 03:38:28;;;;;;;2.17;1.67;;;13.30;99.90;;;;;;5050957;28;20516;-46
2022/09/04 03:40:59;;;;;;;2.28;1.45;;;13.20;99.90;;;;;;5018926;28;20072;-46
2022/09/04 03:43:44;;;;;;;2.85;1.65;;;13.20;99.90;;;;;;5039810;28;20468;-47
2022/09/04 03:46:20;;;;;;;2.70;1.67;;;13.20;99.90;;;;;;5049863;28;20049;-46
2022/09/04 03:48:50;;;;;;;2.33;1.58;;;13.30;99.90;;;;;;5051019;28;20039;-48
2022/09/04 03:51:34;;;;;;;4.07;1.48;;;13.30;99.90;;;;;;5050452;28;20045;-45
2022/09/04 03:54:06;;;;;;;2.97;1.35;;;13.30;99.90;;;;;;5049974;28;20045;-45
2022/09/04 03:57:05;;;;;;;2.15;1.50;;;13.20;99.90;;;;;;5043636;28;20087;-49
2022/09/04 03:59:59;;;;;;;2.72;1.70;;;13.20;99.90;;;;;;5050156;28;20493;-47
2022/09/04 04:02:40;;;;;;;3.30;1.75;;;13.10;99.90;;;;;;5051469;28;20053;-46
2022/09/04 04:05:24;;;;;;;2.38;1.33;;;13.10;99.90;;;;;;5049436;28;20563;-47
2022/09/04 04:08:03;;;;;;;2.35;1.40;;;13.10;99.90;;;;;;5050600;28;20048;-46
2022/09/04 04:10:36;;;;;;;2.25;1.30;;;13.20;99.90;;;;;;5053259;28;20047;-47
2022/09/04 04:13:32;;;;;;;3.40;1.25;;;13.20;99.90;;;;;;5056042;28;20044;-48
2022/09/04 04:16:15;;;;;;;1.98;1.20;;;13.20;99.90;;;;;;5046669;28;20057;-46
2022/09/04 04:19:01;;;;;;;2.30;1.27;;;13.10;99.90;;;;;;5049259;28;20440;-46
2022/09/04 04:21:56;;;;;;;1.25;1.02;;;13.00;99.90;;;;;;5051309;28;20056;-46
2022/09/04 04:25:01;;;;;;;2.17;1.38;;;12.90;99.90;;;;;;5049800;28;20485;-48
2022/09/04 04:27:49;;;;;;;2.20;1.35;;;12.90;99.90;;;;;;5047338;28;20037;-45
2022/09/04 04:30:16;;;;;;;1.40;1.17;;;12.90;99.90;;;;;;5050863;28;20121;-45
2022/09/04 04:32:54;;;;;;;1.10;1.00;;;13.00;99.90;;;;;;5050108;28;20041;-45
2022/09/04 04:35:47;;;;;;;2.08;1.02;;;13.00;99.90;;;;;;5052269;28;20048;-46
2022/09/04 04:38:47;;;;;;;1.63;1.30;;;13.00;99.90;;;;;;5048088;28;20087;-50
2022/09/04 04:42:03;;;;;;;4.32;1.40;;;13.00;99.90;;;;;;5057346;28;20056;-45
2022/09/04 04:47:37;;;;;;;1.73;1.30;;;13.00;99.90;;;;;;5050077;28;20099;-45
2022/09/04 04:50:20;;;;;;;2.13;1.35;;;13.10;99.90;;;;;;5049766;28;20045;-45
2022/09/04 04:53:03;;;;;;;3.88;1.15;;;13.10;99.90;;;;;;5050530;28;20032;-46
2022/09/04 04:55:48;;;;;;;4.28;1.48;;;13.10;99.90;;;;;;5049504;28;20041;-45
2022/09/04 04:58:34;;;;;;;1.92;1.30;;;13.10;99.90;;;;;;5049692;28;20405;-47
2022/09/04 05:01:15;;;;;;;4.32;1.45;;;13.10;99.90;;;;;;5049605;28;20053;-45
2022/09/04 05:03:48;;;;;;;1.58;1.20;;;13.20;99.90;;;;;;5051250;28;20064;-45
2022/09/04 05:06:40;;;;;;;1.88;1.25;;;13.20;99.90;;;;;;5049598;28;20390;-46
2022/09/04 05:09:39;;;;;;;1.40;1.20;;;13.20;99.90;;;;;;5049784;28;20045;-46
2022/09/04 05:12:19;;;;;;;1.85;1.30;;;13.30;99.90;;;;;;5047299;28;20056;-45
2022/09/04 05:15:01;;;;;;;2.10;1.30;;;13.30;99.90;;;;;;5047852;28;20045;-47
2022/09/04 05:17:34;;;;;;;2.80;1.60;;;13.40;99.90;;;;;;5049424;28;20500;-45
2022/09/04 05:20:32;;;;;;;5.10;1.63;;;13.50;99.90;;;;;;5035312;28;20041;-46
2022/09/04 05:23:21;;;;;;;3.72;1.40;;;13.50;99.90;;;;;;5043895;28;20033;-48
2022/09/04 05:26:07;;;;;;;3.25;1.92;;;13.50;99.90;;;;;;5051468;28;20072;-46
2022/09/04 05:28:42;;;;;;;3.10;1.48;;;13.70;99.90;;;;;;5053220;28;20107;-46
2022/09/04 05:31:23;;;;;;;7.13;1.75;;;13.60;99.90;;;;;;5053554;28;20092;-47
2022/09/04 05:33:58;;;;;;;1.20;1.10;;;13.70;99.90;;;;;;5060831;28;20059;-45
2022/09/04 05:36:46;;;;;;;3.58;1.38;;;13.80;99.90;;;;;;5053383;28;20048;-46
2022/09/04 05:39:15;;;;;;;3.53;1.70;;;13.80;99.90;;;;;;5053853;28;20041;-46
2022/09/04 05:41:58;;;;;;;3.70;2.10;;;13.90;99.90;;;;;;5051870;28;20295;-48
2022/09/04 05:44:48;;;;;;;3.03;2.03;;;13.90;99.90;;;;;;5045058;28;20067;-47
2022/09/04 05:47:24;;;;;;;6.68;1.92;;;14.00;99.90;;;;;;5052266;28;20071;-46
2022/09/04 05:50:17;;;;;;;2.88;1.85;;;14.10;99.90;;;;;;5051000;28;20033;-46
2022/09/04 05:52:58;;;;;;;2.53;1.98;;;14.20;99.90;;;;;;5052979;28;20053;-49
2022/09/04 05:55:30;;;;;;;;;;;14.20;99.90;;;;;;5051364;28;20045;-45
2022/09/04 05:58:34;;;;;;;5.43;3.67;;;14.30;99.90;;;;;;5051789;28;20292;-46
2022/09/04 06:01:11;;;;;;;3.05;2.20;;;14.40;99.90;;;;;;5052724;28;20045;-50
2022/09/04 06:03:53;;;;;;;4.18;2.03;;;14.50;99.90;;;;;;5052363;28;20049;-48
2022/09/04 06:06:31;;;;;;;3.85;2.75;;;14.50;99.90;;;;;;5051976;28;20053;-45
2022/09/04 06:09:27;;;;;;;3.83;2.60;;;14.50;99.90;;;;;;5034859;28;20037;-45
2022/09/04 06:12:02;;;;;;;5.13;2.92;;;14.50;99.90;;;;;;5052475;28;20041;-46
2022/09/04 06:14:54;;;;;;;3.40;2.55;;;14.60;99.90;;;;;;5051239;28;20049;-47
2022/09/04 06:17:46;;;;;;;8.15;2.85;;;14.70;99.90;;;;;;5026466;22;20105;-48
2022/09/04 06:20:21;;;;;;;3.50;2.90;;;14.80;99.90;;;;;;4992797;28;20042;-52
2022/09/04 06:23:27;;;;;;;6.90;2.47;;;14.90;99.90;;;;;;5004940;28;20051;-49
2022/09/04 06:25:59;;;;;;;3.42;2.47;;;14.90;99.90;;;;;;5010450;28;20448;-50
2022/09/04 06:28:56;;;;;;;2.28;2.00;;;14.90;99.90;;;;;;5004136;28;20513;-49
2022/09/04 06:31:23;;;;;;;3.35;1.83;;;14.90;99.90;;;;;;5013302;28;20045;-51
2022/09/04 06:34:23;;;;;;;10.23;3.50;;;15.00;99.90;;;;;;5032503;28;20040;-51
2022/09/04 06:36:59;;;;;;;3.58;1.88;;;15.20;99.90;;;;;;5018458;28;20049;-49
2022/09/04 06:40:03;;;;;;;3.75;2.15;;;15.30;99.90;;;;;;5017133;28;20057;-52
2022/09/04 06:42:49;;;;;;;2.55;2.05;;;15.50;99.90;;;;;;4995949;28;20033;-51
2022/09/04 06:46:01;;;;;;;3.10;2.20;;;15.60;99.90;;;;;;5007045;28;20049;-53
2022/09/04 06:49:05;;;;;;;6.72;2.28;;;15.70;99.90;;;;;;5025902;28;20513;-50
2022/09/04 06:51:41;;;;;;;3.60;1.88;;;15.90;99.90;;;;;;5015502;28;20058;-49
2022/09/04 06:54:13;;;;;;;3.40;1.77;;;16.00;99.90;;;;;;5005652;28;20399;-50
2022/09/04 06:57:07;;;;;;;2.05;1.55;;;15.90;99.90;;;;;;5018349;28;20042;-52
2022/09/04 06:59:52;;;;;;;3.47;1.60;;;15.90;99.90;;;;;;5009201;28;20045;-51
2022/09/04 07:02:57;;;;;;;5.65;1.80;;;15.90;99.90;;;;;;5009293;28;20048;-50
2022/09/04 07:05:36;;;;;;;2.92;1.95;;;15.90;99.90;;;;;;5002843;28;20529;-48
2022/09/04 07:08:23;;;;;;;3.13;2.13;;;15.80;99.90;;;;;;5009718;28;20038;-49
2022/09/04 07:11:18;;;;;;;2.67;1.88;;;15.80;99.90;;;;;;5020286;28;20048;-48
2022/09/04 07:14:15;;;;;;;3.00;2.00;;;15.70;99.90;;;;;;5011142;28;20042;-49
2022/09/04 07:17:07;;;;;;;4.75;2.10;;;15.60;99.90;;;;;;5006693;28;20491;-49
2022/09/04 07:20:06;;;;;;;3.13;2.35;;;15.70;99.90;;;;;;5012412;28;20403;-49
2022/09/04 07:22:49;;;;;;;6.68;2.70;;;15.80;99.90;;;;;;5011447;28;20045;-49
2022/09/04 07:25:31;;;;;;;10.75;2.50;;;16.00;99.90;;;;;;5012378;28;20233;-49
2022/09/04 07:28:15;;;;;;;4.13;2.78;;;16.10;99.90;;;;;;5031205;28;20041;-49
2022/09/04 07:30:52;;;;;;;8.23;4.30;;;16.10;99.90;;;;;;5013829;28;20064;-50
2022/09/04 07:33:30;;;;;;;3.70;2.80;;;16.20;99.90;;;;;;5011976;28;20040;-50
2022/09/04 07:36:01;;;;;;;6.13;3.05;;;16.50;99.90;;;;;;5031461;28;20272;-49
2022/09/04 07:38:53;;;;;;;8.20;4.20;;;16.90;99.90;;;;;;5030570;28;20037;-52
2022/09/04 07:41:42;;;;;;;3.20;2.70;;;16.90;99.90;;;;;;5017826;28;20451;-50
2022/09/04 07:44:23;;;;;;;5.00;3.63;;;17.00;99.90;;;;;;5030301;28;20391;-50
2022/09/04 07:47:15;;;;;;;7.30;2.92;;;17.20;99.90;;;;;;5031214;28;20124;-49
2022/09/04 07:49:54;;;;;;;7.15;2.63;;;17.30;99.90;;;;;;5022847;28;20049;-49
2022/09/04 07:52:40;;;;;;;2.90;2.30;;;17.20;99.90;;;;;;5031235;28;20041;-50
2022/09/04 07:55:31;;;;;;;3.22;2.50;;;16.90;99.90;;;;;;5030358;28;20045;-49
2022/09/04 07:58:31;;;;;;;6.38;2.15;;;17.00;99.90;;;;;;5014991;28;20041;-50
2022/09/04 08:01:29;;;;;;;3.95;2.30;;;17.20;99.90;;;;;;5008652;28;20407;-53
2022/09/04 08:04:27;;;;;;;2.53;2.20;;;17.50;99.90;;;;;;5020340;28;20045;-48
2022/09/04 08:07:04;;;;;;;3.80;2.45;;;17.70;99.90;;;;;;5030741;28;20038;-50
2022/09/04 08:09:49;;;;;;;2.30;1.98;;;17.80;99.90;;;;;;5020005;28;20041;-52
2022/09/04 08:12:49;;;;;;;4.13;2.05;;;18.00;99.90;;;;;;5030452;28;20064;-50
2022/09/04 08:15:47;;;;;;;4.25;2.30;;;17.90;99.90;;;;;;5031174;28;20073;-52
2022/09/04 08:18:35;;;;;;;5.72;2.28;;;17.90;99.90;;;;;;5020495;28;20046;-50
2022/09/04 08:21:17;;;;;;;2.03;1.70;;;17.90;99.90;;;;;;5012954;28;20080;-49
2022/09/04 08:24:05;;;;;;;2.95;2.20;;;17.90;99.90;;;;;;5030334;28;20494;-49
2022/09/04 08:26:45;;;;;;;2.80;2.45;;;18.00;99.90;;;;;;5012823;28;20132;-49
2022/09/04 08:29:27;;;;;;;5.60;1.80;;;18.20;99.90;;;;;;5030970;28;20133;-53
2022/09/04 08:32:21;;;;;;;2.60;1.90;;;18.20;99.90;;;;;;5028579;28;20421;-49
2022/09/04 08:35:06;;;;;;;4.28;2.15;;;18.30;99.90;;;;;;5020907;28;20046;-49
2022/09/04 08:38:10;;;;;;;5.13;2.28;;;18.30;99.90;;;;;;5005913;28;20449;-50
2022/09/04 08:41:03;;;;;;;4.20;2.00;;;18.50;99.90;;;;;;5007077;28;20053;-49
2022/09/04 08:43:53;;;;;;;7.60;2.38;;;18.60;99.90;;;;;;4999672;28;20046;-49
2022/09/04 08:47:09;;;;;;;2.45;2.13;;;18.70;99.90;;;;;;5001478;28;20119;-48
2022/09/04 08:50:22;;;;;;;3.10;2.22;;;18.70;99.90;;;;;;4911124;29;20127;-49
2022/09/04 08:53:27;;;;;;;3.58;1.95;;;18.80;99.90;;;;;;4929239;29;20043;-50
2022/09/04 08:56:27;;;;;;;2.30;2.00;;;18.80;99.90;;;;;;5003377;28;20117;-50
2022/09/04 08:59:25;;;;;;;2.42;2.10;;;18.80;99.90;;;;;;5005660;28;20616;-48
2022/09/04 09:02:20;;;;;;;2.53;2.00;;;19.00;99.90;;;;;;5007245;28;20066;-49
2022/09/04 09:04:50;;;;;;;2.55;2.25;;;19.10;99.90;;;;;;5010897;28;20529;-49
2022/09/04 09:07:58;;;;;;;2.95;2.15;;;19.20;99.90;;;;;;5011575;28;20042;-51
2022/09/04 09:11:06;;;;;;;4.45;2.03;;;19.30;99.90;;;;;;5005742;28;20113;-51
2022/09/04 09:13:57;;;;;;;2.85;2.10;;;19.50;99.90;;;;;;5011286;28;20502;-49
2022/09/04 09:16:50;;;;;;;3.88;2.05;;;19.60;99.90;;;;;;5007527;28;20520;-50
2022/09/04 09:19:45;;;;;;;2.15;1.92;;;19.60;99.90;;;;;;5009096;28;20042;-50
2022/09/04 09:22:31;;;;;;;2.63;2.10;;;19.70;99.90;;;;;;5009596;28;20179;-49
2022/09/04 09:25:18;;;;;;;2.97;1.83;;;19.80;99.90;;;;;;5015833;28;20033;-49
2022/09/04 09:27:57;;;;;;;2.88;1.98;;;20.00;99.90;;;;;;5033342;28;20048;-52
2022/09/04 09:30:33;;;;;;;5.18;2.85;;;20.10;99.90;;;;;;5014381;28;20509;-50
2022/09/04 09:33:38;;;;;;;2.33;1.90;;;20.20;99.90;;;;;;5008513;28;20112;-50
2022/09/04 09:36:19;;;;;;;4.65;1.98;;;20.20;99.90;;;;;;5006220;28;20042;-48
2022/09/04 09:39:17;;;;;;;2.67;2.05;;;20.20;99.90;;;;;;5009319;28;20033;-50
2022/09/04 09:41:55;;;;;;;1.90;1.73;;;20.30;99.90;;;;;;5007065;28;20407;-50
2022/09/04 09:44:38;;;;;;;1.70;1.50;;;20.30;99.90;;;;;;5010327;28;20045;-48
2022/09/04 09:47:23;;;;;;;1.70;1.60;;;20.50;99.90;;;;;;5010665;28;20038;-48
2022/09/04 09:49:59;;;;;;;2.58;1.92;;;20.60;99.90;;;;;;5010788;28;20049;-49
2022/09/04 09:53:04;;;;;;;3.97;1.58;;;20.60;99.90;;;;;;5004167;28;20045;-51
2022/09/04 09:55:52;;;;;;;2.67;2.10;;;20.70;99.90;;;;;;4951671;28;20055;-50
2022/09/04 09:58:25;;;;;;;2.50;2.13;;;20.80;99.90;;;;;;4994524;28;20053;-50
2022/09/04 10:01:20;;;;;;;2.17;1.60;;;20.80;99.90;;;;;;5010370;28;20062;-51
2022/09/04 10:03:58;;;;;;;5.10;1.88;;;20.60;99.90;;;;;;5000664;28;20038;-49
2022/09/04 10:06:39;;;;;;;2.10;1.65;;;20.50;99.90;;;;;;5011030;28;20046;-49
2022/09/04 10:09:43;;;;;;;3.50;2.40;;;20.70;99.90;;;;;;5011731;28;20052;-50
2022/09/04 10:12:36;;;;;;;3.00;2.00;;;21.00;99.90;;;;;;5011618;28;20092;-50
2022/09/04 10:15:21;;;;;;;2.10;1.80;;;21.20;99.90;;;;;;5007518;28;20058;-48
2022/09/04 10:18:09;;;;;;;4.30;1.80;;;21.40;99.90;;;;;;5001549;28;20037;-48
2022/09/04 10:20:53;;;;;;;1.63;1.52;;;21.70;99.90;;;;;;5012034;28;20053;-49
2022/09/04 10:23:28;;;;;;;2.20;2.00;;;21.90;99.90;;;;;;5011422;28;20054;-50
2022/09/04 10:26:17;;;;;;;4.47;1.85;;;21.60;99.90;;;;;;5002672;28;20046;-51
2022/09/04 10:29:09;;;;;;;3.20;1.67;;;21.30;99.90;;;;;;5010720;28;20050;-49
2022/09/04 10:31:53;;;;;;;2.10;1.90;;;21.10;99.90;;;;;;5010992;28;20045;-50
2022/09/04 10:34:53;;;;;;;1.95;1.77;;;21.20;99.90;;;;;;5012677;28;20041;-48
2022/09/04 10:37:31;;;;;;;3.67;2.10;;;21.30;99.90;;;;;;5007901;28;20060;-50
2022/09/04 10:40:34;;;;;;;3.53;1.75;;;21.70;99.90;;;;;;5012514;28;20459;-50
2022/09/04 10:43:17;;;;;;;2.90;1.58;;;22.10;99.90;;;;;;5009432;28;20041;-49
2022/09/04 10:46:17;;;;;;;1.70;1.45;;;22.50;99.90;;;;;;5004224;28;20034;-52
2022/09/04 10:49:05;;;;;;;2.17;1.77;;;22.80;99.90;;;;;;5009856;28;20072;-49
2022/09/04 10:51:42;;;;;;;2.33;1.58;;;22.70;99.90;;;;;;5006814;28;20041;-48
2022/09/04 10:54:22;;;;;;;1.55;1.45;;;22.20;99.90;;;;;;5003295;28;20046;-48
2022/09/04 10:57:33;;;;;;;3.35;1.52;;;22.00;99.90;;;;;;5008441;28;20038;-49
2022/09/04 11:00:18;;;;;;;1.63;1.50;;;22.00;99.90;;;;;;5009607;28;20046;-48
2022/09/04 11:03:04;;;;;;;2.00;1.27;;;21.90;99.90;;;;;;5008709;28;20042;-48
2022/09/04 11:05:43;;;;;;;1.33;1.23;;;21.90;99.90;;;;;;5010479;28;20041;-48
2022/09/04 11:08:43;;;;;;;4.55;1.50;;;22.00;99.90;;;;;;5011046;28;20042;-49
2022/09/04 11:11:21;;;;;;;2.00;1.80;;;21.90;99.90;;;;;;5008211;28;20056;-48
2022/09/04 11:14:12;;;;;;;1.63;1.40;;;21.80;99.90;;;;;;5003013;28;20060;-48
2022/09/04 11:17:05;;;;;;;1.80;1.25;;;21.80;99.90;;;;;;5031874;23;20080;-48
2022/09/04 11:19:59;;;;;;;1.85;1.60;;;21.80;99.90;;;;;;5021469;28;20054;-49
2022/09/04 11:22:45;;;;;;;1.67;1.42;;;21.90;99.90;;;;;;5028206;28;20049;-52
2022/09/04 11:25:45;;;;;;;1.63;1.52;;;21.80;99.90;;;;;;5030835;28;20124;-50
2022/09/04 11:28:43;;;;;;;3.00;1.60;;;21.90;99.90;;;;;;5011429;28;20130;-49
2022/09/04 11:31:35;;;;;;;1.63;1.50;;;21.80;99.90;;;;;;5010280;28;20529;-49
2022/09/04 11:34:29;;;;;;;2.65;2.10;;;21.90;99.90;;;;;;5009740;28;20034;-48
2022/09/04 11:37:16;;;;;;;1.80;1.70;;;22.10;99.90;;;;;;5011557;28;20105;-48
2022/09/04 11:40:12;;;;;;;2.28;1.98;;;22.30;99.90;;;;;;5010084;28;20042;-50
2022/09/04 11:42:56;;;;;;;2.47;2.00;;;22.40;99.90;;;;;;5009296;28;20042;-48
2022/09/04 11:45:59;;;;;;;3.17;1.63;;;22.50;99.90;;;;;;5008584;28;20042;-51
2022/09/04 11:48:45;;;;;;;4.00;1.90;;;22.80;99.90;;;;;;5010861;28;20042;-48
2022/09/04 11:51:35;;;;;;;2.75;1.73;;;23.10;99.90;;;;;;5010688;28;20041;-49
2022/09/04 11:54:28;;;;;;;3.08;1.95;;;23.20;99.90;;;;;;5009686;28;20048;-49
2022/09/04 11:56:55;;;;;;;3.47;1.77;;;23.10;99.90;;;;;;5011390;28;20041;-49
2022/09/04 11:59:54;;;;;;;3.08;1.70;;;23.00;99.90;;;;;;4990938;28;20030;-50
2022/09/04 12:02:40;;;;;;;2.45;1.55;;;23.30;99.90;;;;;;5006632;28;20145;-50
2022/09/04 12:05:41;;;;;;;2.38;1.60;;;23.50;99.90;;;;;;4992059;28;20486;-49
2022/09/04 12:08:44;;;;;;;2.97;1.52;;;23.70;99.90;;;;;;5010261;28;20069;-48
2022/09/04 12:11:35;;;;;;;2.38;1.80;;;23.80;99.90;;;;;;4998807;28;20061;-49
2022/09/04 12:14:31;;;;;;;2.13;1.80;;;23.90;99.90;;;;;;5008232;28;20053;-49
2022/09/04 12:17:30;;;;;;;3.75;1.52;;;24.00;99.90;;;;;;5022481;22;20046;-47
2022/09/04 12:20:07;;;;;;;2.63;1.60;;;24.00;99.90;;;;;;5006221;28;20466;-47
2022/09/04 12:23:00;;;;;;;1.95;1.67;;;23.80;99.90;;;;;;5012530;28;20060;-44
2022/09/04 12:25:39;;;;;;;2.42;1.85;;;23.70;99.90;;;;;;5000521;28;20049;-45
2022/09/04 12:28:14;;;;;;;2.08;1.80;;;23.90;99.90;;;;;;5027391;28;20060;-48
2022/09/04 12:31:05;;;;;;;2.65;1.83;;;23.90;99.90;;;;;;5030286;28;20052;-50
2022/09/04 12:33:34;;;;;;;3.13;1.67;;;23.70;99.90;;;;;;5038195;28;20091;-48
2022/09/04 12:36:32;;;;;;;1.50;1.40;;;23.60;99.90;;;;;;5039670;28;20045;-48
2022/09/04 12:39:16;;;;;;;1.30;1.20;;;23.40;99.90;;;;;;5031611;28;20093;-50
2022/09/04 12:42:11;;;;;;;3.50;1.80;;;23.20;99.90;;;;;;5042751;28;20490;-48
2022/09/04 12:44:44;;;;;;;5.18;1.65;;;22.90;99.90;;;;;;5032454;28;20064;-46
2022/09/04 12:47:33;;;;;;;3.75;1.83;;;22.60;99.90;;;;;;5033026;28;20057;-46
2022/09/04 12:50:09;;;;;;;2.03;1.63;;;22.60;99.90;;;;;;5034555;28;20042;-46
2022/09/04 12:52:56;;;;;;;2.85;1.67;;;23.00;99.90;;;;;;5046122;28;20040;-46
2022/09/04 12:55:42;;;;;;;1.92;1.45;;;23.40;99.90;;;;;;5034576;28;20033;-47
2022/09/04 12:58:32;;;;;;;1.98;1.45;;;23.90;99.90;;;;;;5033872;28;20053;-46
2022/09/04 13:01:20;;;;;;;1.95;1.42;;;24.10;99.90;;;;;;5037807;28;20041;-46
2022/09/04 13:03:59;;;;;;;1.70;1.60;;;24.20;99.90;;;;;;5034391;28;20037;-46
2022/09/04 13:07:17;;;;;;;1.50;1.25;;;24.60;99.90;;;;;;5036141;28;20055;-46
2022/09/04 13:10:02;;;;;;;2.28;1.30;;;24.80;99.90;;;;;;5005500;28;20060;-46
2022/09/04 13:12:58;;;;;;;4.28;1.73;;;24.70;99.90;;;;;;5043659;28;20045;-45
2022/09/04 13:15:44;;;;;;;1.30;1.20;;;24.60;99.90;;;;;;5035360;28;20517;-46
2022/09/04 13:18:19;;;;;;;2.22;1.58;;;24.60;99.90;;;;;;5043643;28;20045;-45
2022/09/04 13:21:15;;;;;;;1.90;1.30;;;24.40;99.90;;;;;;5045960;28;20033;-47
2022/09/04 13:24:07;;;;;;;2.10;1.20;;;24.40;99.90;;;;;;5037144;28;20041;-46
2022/09/04 13:26:59;;;;;;;2.88;1.35;;;24.30;99.90;;;;;;5046536;28;20037;-46
2022/09/04 13:30:00;;;;;;;3.65;1.58;;;24.50;99.90;;;;;;5038215;28;20111;-47
2022/09/04 13:32:51;;;;;;;1.30;1.20;;;24.70;99.90;;;;;;5030474;28;20044;-47
2022/09/04 13:35:21;;;;;;;2.08;1.60;;;24.80;99.90;;;;;;5034852;28;20094;-46
2022/09/04 13:38:19;;;;;;;1.38;1.23;;;24.70;99.90;;;;;;5038765;28;20053;-47
2022/09/04 13:40:53;;;;;;;1.67;1.45;;;24.80;99.90;;;;;;4993191;28;20386;-47
2022/09/04 13:43:48;;;;;;;1.83;1.50;;;25.00;99.90;;;;;;5032247;28;20045;-46
2022/09/04 13:46:20;;;;;;;1.58;1.48;;;25.10;99.90;;;;;;5040893;28;20045;-46
2022/09/04 13:48:54;;;;;;;1.50;1.40;;;24.90;99.90;;;;;;5045184;28;20112;-45
2022/09/04 13:51:36;;;;;;;3.40;1.42;;;24.90;99.90;;;;;;5032199;28;20049;-45
2022/09/04 13:54:11;;;;;;;3.63;1.35;;;24.60;99.90;;;;;;5037209;28;20104;-45
2022/09/04 13:57:14;;;;;;;1.55;1.15;;;24.50;99.90;;;;;;5035728;28;20045;-46
2022/09/04 13:59:45;;;;;;;2.17;1.70;;;24.70;99.90;;;;;;5031820;28;20095;-46
2022/09/04 14:02:13;;;;;;;1.73;1.63;;;25.00;99.90;;;;;;5039535;28;20038;-45
2022/09/04 14:04:48;;;;;;;2.38;1.40;;;25.00;99.90;;;;;;5043551;28;20033;-46
2022/09/04 14:07:25;;;;;;;3.15;1.40;;;25.10;99.90;;;;;;5038029;28;20061;-47
2022/09/04 14:09:55;;;;;;;2.17;1.88;;;25.30;99.90;;;;;;5030075;28;20052;-46
2022/09/04 14:13:01;;;;;;;1.48;1.25;;;25.30;99.90;;;;;;5038977;28;20045;-45
2022/09/04 14:15:38;;;;;;;1.67;1.27;;;25.40;99.90;;;;;;5024953;28;20041;-46
2022/09/04 14:18:36;;;;;;;2.30;1.52;;;25.50;99.90;;;;;;5033283;28;20052;-46
2022/09/04 14:21:36;;;;;;;5.70;1.42;;;25.30;99.90;;;;;;5033353;28;20041;-46
2022/09/04 14:24:11;;;;;;;2.45;1.23;;;25.00;99.90;;;;;;5041459;28;20044;-46
2022/09/04 14:27:37;;;;;;;1.67;1.25;;;24.90;99.90;;;;;;5041797;28;20036;-47
2022/09/04 14:30:12;;;;;;;1.38;1.27;;;24.90;99.90;;;;;;4915939;29;20064;-45
2022/09/04 14:33:13;;;;;;;1.27;1.17;;;24.90;99.90;;;;;;5039804;28;20041;-47